createdAt,value
2023-04-02T00:00:36.168Z,98979.38
2023-04-02T00:03:08.752Z,98988.03
2023-04-02T00:05:52.934Z,98992.44
2023-04-02T00:08:39.028Z,98994.22
2023-04-02T00:11:10.358Z,98986.47
2023-04-02T00:13:43.647Z,98996.06
2023-04-02T00:16:15.916Z,99000.19
2023-04-02T00:18:50.288Z,99004.88
2023-04-02T00:21:25.873Z,99000.75
2023-04-02T00:23:57.176Z,99009.41
2023-04-02T00:26:32.383Z,98997.53
2023-04-02T00:29:01.787Z,99003.88
2023-04-02T00:31:31.205Z,99005.69
2023-04-02T00:34:02.622Z,98997.19
2023-04-02T00:36:35.673Z,99003.38
2023-04-02T00:39:08.997Z,99012.22
2023-04-02T00:41:39.355Z,99019.97
2023-04-02T00:44:12.681Z,99015.97
2023-04-02T00:47:09.338Z,99011.22
2023-04-02T00:49:41.062Z,99014.84
2023-04-02T00:52:15.780Z,99017.72
2023-04-02T00:54:49.766Z,99011.00
2023-04-02T00:57:23.567Z,99023.16
2023-04-02T00:59:56.999Z,99019.81
2023-04-02T01:02:31.030Z,99021.66
2023-04-02T01:05:03.680Z,99017.38
2023-04-02T01:07:55.991Z,99024.47
2023-04-02T01:10:41.646Z,99021.28
2023-04-02T01:13:16.272Z,99018.81
2023-04-02T01:15:53.183Z,99020.16
2023-04-02T01:18:33.402Z,99016.91
2023-04-02T01:21:17.964Z,99018.88
2023-04-02T01:23:58.971Z,99019.03
2023-04-02T01:26:38.121Z,99018.38
2023-04-02T01:29:12.457Z,99020.34
2023-04-02T01:31:43.795Z,99022.31
2023-04-02T01:34:15.744Z,99018.31
2023-04-02T01:37:01.163Z,99014.31
2023-04-02T01:39:43.370Z,99010.19
2023-04-02T01:42:18.502Z,99002.41
2023-04-02T01:44:52.266Z,99010.19
2023-04-02T01:47:27.459Z,99005.78
2023-04-02T01:50:03.966Z,99005.00
2023-04-02T01:52:40.833Z,99006.06
2023-04-02T01:55:13.235Z,99011.88
2023-04-02T01:57:45.088Z,99020.53
2023-04-02T02:00:18.144Z,99010.69
2023-04-02T02:02:53.336Z,99011.97
2023-04-02T02:05:24.797Z,99009.09
2023-04-02T02:07:58.008Z,99012.47
2023-04-02T02:10:30.718Z,99010.50
2023-04-02T02:13:00.591Z,99015.69
2023-04-02T02:15:34.795Z,99010.50
2023-04-02T02:18:06.876Z,99014.78
2023-04-02T02:20:37.190Z,99011.41
2023-04-02T02:23:07.382Z,99016.56
2023-04-02T02:25:37.873Z,99014.00
2023-04-02T02:28:09.600Z,99013.88
2023-04-02T02:30:44.884Z,99013.59
2023-04-02T02:33:21.957Z,99010.22
2023-04-02T02:35:56.808Z,99018.75
2023-04-02T02:38:42.190Z,99021.47
2023-04-02T02:41:24.755Z,99017.19
2023-04-02T02:44:01.517Z,99020.56
2023-04-02T02:46:35.571Z,99024.22
2023-04-02T02:49:12.121Z,99021.63
2023-04-02T02:51:45.532Z,99024.63
2023-04-02T02:54:20.426Z,99025.66
2023-04-02T02:56:56.442Z,99025.94
2023-04-02T02:59:28.104Z,99036.28
2023-04-02T03:02:00.686Z,99038.88
2023-04-02T03:04:35.920Z,99038.09
2023-04-02T03:07:10.567Z,99043.25
2023-04-02T03:09:48.040Z,99038.53
2023-04-02T03:12:38.673Z,99042.03
2023-04-02T03:15:19.516Z,99045.34
2023-04-02T03:17:54.945Z,99037.13
2023-04-02T03:20:29.937Z,99029.81
2023-04-02T03:23:04.076Z,99027.13
2023-04-02T03:25:41.881Z,99026.22
2023-04-02T03:28:18.205Z,99030.47
2023-04-02T03:30:52.426Z,99036.84
2023-04-02T03:33:28.539Z,99036.06
2023-04-02T03:36:04.838Z,99032.19
2023-04-02T03:38:46.719Z,99037.81
2023-04-02T03:41:21.304Z,99042.59
2023-04-02T03:43:57.975Z,99050.38
2023-04-02T03:46:34.857Z,99052.47
2023-04-02T03:49:11.083Z,99047.00
2023-04-02T03:51:48.426Z,99055.16
2023-04-02T03:54:18.429Z,99050.94
2023-04-02T03:56:48.249Z,99054.19
2023-04-02T03:59:35.990Z,99056.69
2023-04-02T04:02:15.996Z,99051.28
2023-04-02T04:04:49.932Z,99053.09
2023-04-02T04:07:29.286Z,99051.03
2023-04-02T04:10:00.619Z,99048.69
2023-04-02T04:12:36.062Z,99049.00
2023-04-02T04:15:11.325Z,99055.09
2023-04-02T04:17:51.721Z,99056.53
2023-04-02T04:20:28.277Z,99055.53
2023-04-02T04:23:11.018Z,99051.41
2023-04-02T04:25:41.006Z,99061.78
2023-04-02T04:28:38.491Z,99052.47
2023-04-02T04:31:21.375Z,99051.19
2023-04-02T04:34:06.871Z,99049.38
2023-04-02T04:36:54.435Z,99046.28
2023-04-02T04:39:36.853Z,99053.25
2023-04-02T04:42:08.487Z,99058.22
2023-04-02T04:44:45.603Z,99061.31
2023-04-02T04:47:21.643Z,99063.00
2023-04-02T04:49:56.023Z,99065.56
2023-04-02T04:52:30.738Z,99070.63
2023-04-02T04:55:01.472Z,99072.31
2023-04-02T04:57:35.324Z,99068.28
2023-04-02T05:00:18.576Z,99071.66
2023-04-02T05:02:55.262Z,99066.47
2023-04-02T05:05:30.610Z,99080.84
2023-04-02T05:08:24.288Z,99085.00
2023-04-02T05:10:59.487Z,99077.72
2023-04-02T05:13:36.152Z,99082.56
2023-04-02T05:16:15.161Z,99085.94
2023-04-02T05:18:51.976Z,99085.94
2023-04-02T05:21:27.650Z,99095.50
2023-04-02T05:24:06.942Z,99081.53
2023-04-02T05:26:43.438Z,99081.94
2023-04-02T05:29:19.919Z,99079.97
2023-04-02T05:31:55.732Z,99084.38
2023-04-02T05:34:29.910Z,99099.69
2023-04-02T05:37:00.229Z,99093.22
2023-04-02T05:39:32.604Z,99089.31
2023-04-02T05:42:06.199Z,99089.47
2023-04-02T05:45:02.542Z,99089.47
2023-04-02T05:47:41.151Z,99092.94
2023-04-02T05:50:26.707Z,99088.00
2023-04-02T05:53:04.229Z,99087.25
2023-04-02T05:55:52.431Z,99086.66
2023-04-02T05:58:36.277Z,99092.41
2023-04-02T06:01:25.285Z,99100.69
2023-04-02T06:04:03.167Z,99102.66
2023-04-02T06:06:50.246Z,99104.63
2023-04-02T06:09:26.542Z,99108.00
2023-04-02T06:12:12.516Z,99100.72
2023-04-02T06:15:09.035Z,99109.56
2023-04-02T06:17:48.144Z,99104.13
2023-04-02T06:20:20.650Z,99102.06
2023-04-02T06:22:52.866Z,99102.69
2023-04-02T06:25:27.514Z,99101.75
2023-04-02T06:28:01.507Z,99103.81
2023-04-02T06:30:44.530Z,99103.50
2023-04-02T06:33:14.687Z,99111.81
2023-04-02T06:35:51.171Z,99104.50
2023-04-02T06:38:32.519Z,99108.59
2023-04-02T06:41:04.627Z,99117.75
2023-04-02T06:43:47.301Z,99108.34
2023-04-02T06:46:29.765Z,99102.47
2023-04-02T06:49:23.265Z,99108.66
2023-04-02T06:52:01.282Z,99116.06
2023-04-02T06:54:33.525Z,99112.03
2023-04-02T06:57:08.941Z,99115.31
2023-04-02T06:59:45.382Z,99112.56
2023-04-02T07:02:32.978Z,99114.84
2023-04-02T07:05:09.360Z,99117.00
2023-04-02T07:07:42.580Z,99107.81
2023-04-02T07:10:13.960Z,99112.09
2023-04-02T07:12:43.178Z,99113.06
2023-04-02T07:15:17.367Z,99110.22
2023-04-02T07:17:47.791Z,99111.84
2023-04-02T07:20:29.183Z,99110.22
2023-04-02T07:23:00.149Z,99105.53
2023-04-02T07:25:29.251Z,99111.84
2023-04-02T07:27:58.534Z,99117.75
2023-04-02T07:30:29.334Z,99121.69
2023-04-02T07:32:58.530Z,99118.13
2023-04-02T07:35:27.621Z,99123.13
2023-04-02T07:37:56.788Z,99130.03
2023-04-02T07:40:29.144Z,99132.81
2023-04-02T07:42:58.737Z,99134.19
2023-04-02T07:45:29.603Z,99137.84
2023-04-02T07:48:01.469Z,99133.50
2023-04-02T07:50:31.074Z,99138.94
2023-04-02T07:53:00.631Z,99137.84
2023-04-02T07:55:29.736Z,99133.38
2023-04-02T07:58:00.656Z,99144.13
2023-04-02T08:00:32.441Z,99135.66
2023-04-02T08:03:01.752Z,99141.84
2023-04-02T08:05:31.007Z,99145.94
2023-04-02T08:08:00.142Z,99135.38
2023-04-02T08:10:29.493Z,99126.88
2023-04-02T08:12:59.018Z,99125.34
2023-04-02T08:15:28.299Z,99131.66
2023-04-02T08:17:59.289Z,99137.22
2023-04-02T08:20:28.737Z,99149.63
2023-04-02T08:23:01.236Z,99148.13
2023-04-02T08:25:31.110Z,99150.13
2023-04-02T08:28:01.738Z,99151.41
2023-04-02T08:30:31.515Z,99149.44
2023-04-02T08:33:02.264Z,99149.75
2023-04-02T08:35:31.904Z,99153.09
2023-04-02T08:38:01.593Z,99156.28
2023-04-02T08:40:34.497Z,99152.53
2023-04-02T08:43:17.059Z,99151.75
2023-04-02T08:46:05.033Z,99154.97
2023-04-02T08:48:40.787Z,99158.06
2023-04-02T08:51:23.129Z,99155.56
2023-04-02T08:53:54.796Z,99154.47
2023-04-02T08:56:30.644Z,99155.88
2023-04-02T08:59:03.984Z,99160.94
2023-04-02T09:01:41.628Z,99155.56
2023-04-02T09:04:19.065Z,99159.63
2023-04-02T09:06:50.519Z,99153.44
2023-04-02T09:09:21.789Z,99157.44
2023-04-02T09:12:01.574Z,99155.25
2023-04-02T09:14:37.934Z,99164.56
2023-04-02T09:17:14.295Z,99157.91
2023-04-02T09:19:56.321Z,99146.97
2023-04-02T09:22:28.665Z,99161.31
2023-04-02T09:24:59.338Z,99157.25
2023-04-02T09:27:31.647Z,99163.84
2023-04-02T09:30:04.914Z,99163.34
2023-04-02T09:32:50.589Z,99159.50
2023-04-02T09:35:26.571Z,99161.41
2023-04-02T09:38:19.052Z,99153.78
2023-04-02T09:40:51.879Z,99156.09
2023-04-02T09:43:29.606Z,99156.94
2023-04-02T09:46:01.987Z,99159.06
2023-04-02T09:48:34.308Z,99160.19
2023-04-02T09:51:21.869Z,99160.16
2023-04-02T09:53:52.361Z,99152.31
2023-04-02T09:56:23.698Z,99158.22
2023-04-02T09:59:06.171Z,99154.94
2023-04-02T10:01:39.002Z,99148.69
2023-04-02T10:04:38.862Z,99152.56
2023-04-02T10:07:29.604Z,99156.09
2023-04-02T10:09:59.905Z,99159.94
2023-04-02T10:12:33.446Z,99157.88
2023-04-02T10:15:05.604Z,99159.34
2023-04-02T10:17:38.874Z,99167.72
2023-04-02T10:20:20.288Z,99167.03
2023-04-02T10:22:51.645Z,99176.13
2023-04-02T10:25:27.291Z,99181.66
2023-04-02T10:28:07.616Z,99174.09
2023-04-02T10:30:46.876Z,99179.53
2023-04-02T10:33:23.883Z,99169.50
2023-04-02T10:36:00.264Z,99168.88
2023-04-02T10:38:52.279Z,99165.47
2023-04-02T10:41:31.846Z,99159.94
2023-04-02T10:44:29.467Z,99165.72
2023-04-02T10:47:10.414Z,99162.88
2023-04-02T10:49:45.391Z,99154.81
2023-04-02T10:52:21.310Z,99153.03
2023-04-02T10:54:53.116Z,99153.69
2023-04-02T10:57:35.399Z,99150.25
2023-04-02T11:00:17.408Z,99151.25
2023-04-02T11:02:52.372Z,99146.34
2023-04-02T11:05:24.994Z,99138.53
2023-04-02T11:08:08.166Z,99144.25
2023-04-02T11:10:44.475Z,99145.22
2023-04-02T11:13:20.205Z,99142.94
2023-04-02T11:15:50.850Z,99152.47
2023-04-02T11:18:26.350Z,99145.13
2023-04-02T11:21:01.671Z,99145.81
2023-04-02T11:23:32.297Z,99141.53
2023-04-02T11:26:35.571Z,99141.19
2023-04-02T11:29:18.757Z,99134.75
2023-04-02T11:31:48.616Z,99137.88
2023-04-02T11:35:06.624Z,99141.78
2023-04-02T11:37:39.834Z,99141.19
2023-04-02T11:40:48.939Z,99144.53
2023-04-02T11:44:01.500Z,99136.47
2023-04-02T11:46:41.857Z,99137.44
2023-04-02T11:49:42.064Z,99131.47
2023-04-02T11:52:27.174Z,99124.06
2023-04-02T11:55:19.364Z,99128.16
2023-04-02T11:58:22.956Z,99116.81
2023-04-02T12:05:24.594Z,99125.44
2023-04-02T12:08:12.549Z,99130.75
2023-04-02T12:10:56.293Z,99131.09
2023-04-02T12:13:53.115Z,99130.38
2023-04-02T12:16:29.387Z,99133.81
2023-04-02T12:18:59.550Z,99136.50
2023-04-02T12:21:31.571Z,99139.38
2023-04-02T12:24:04.114Z,99138.06
2023-04-02T12:26:38.019Z,99126.41
2023-04-02T12:29:18.203Z,99143.44
2023-04-02T12:31:48.964Z,99142.09
2023-04-02T12:34:20.364Z,99151.31
2023-04-02T12:37:20.980Z,99145.81
2023-04-02T12:39:58.413Z,99149.97
2023-04-02T12:42:32.513Z,99145.75
2023-04-02T12:45:02.594Z,99144.72
2023-04-02T12:47:32.905Z,99152.75
2023-04-02T12:50:04.441Z,99150.47
2023-04-02T12:52:36.326Z,99148.47
2023-04-02T12:55:07.843Z,99145.97
2023-04-02T12:57:42.834Z,99142.03
2023-04-02T13:00:36.568Z,99140.66
2023-04-02T13:03:19.814Z,99148.13
2023-04-02T13:05:55.390Z,99136.81
2023-04-02T13:08:28.735Z,99143.50
2023-04-02T13:11:00.924Z,99137.16
2023-04-02T13:13:37.990Z,99139.09
2023-04-02T13:16:25.688Z,99136.03
2023-04-02T13:19:16.437Z,99129.28
2023-04-02T13:21:49.479Z,99126.28
2023-04-02T13:24:21.659Z,99131.06
2023-04-02T13:26:52.288Z,99133.09
2023-04-02T13:29:26.549Z,99133.34
2023-04-02T13:31:58.075Z,99139.69
2023-04-02T13:34:28.192Z,99131.78
2023-04-02T13:36:58.876Z,99133.91
2023-04-02T13:39:30.685Z,99133.59
2023-04-02T13:42:04.453Z,99141.47
2023-04-02T13:44:37.189Z,99138.50
2023-04-02T13:47:06.989Z,99144.97
2023-04-02T13:49:36.700Z,99141.72
2023-04-02T13:52:06.531Z,99143.28
2023-04-02T13:54:44.950Z,99134.84
2023-04-02T13:57:16.595Z,99143.94
2023-04-02T13:59:46.434Z,99143.72
2023-04-02T14:02:20.196Z,99139.69
2023-04-02T14:04:54.004Z,99143.47
2023-04-02T14:07:51.884Z,99147.22
2023-04-02T14:10:32.015Z,99145.88
2023-04-02T14:13:15.311Z,99146.41
2023-04-02T14:15:56.991Z,99152.41
2023-04-02T14:18:43.847Z,99146.38
2023-04-02T14:21:23.456Z,99148.91
2023-04-02T14:24:06.337Z,99146.09
2023-04-02T14:26:49.997Z,99146.09
2023-04-02T14:29:28.795Z,99149.66
2023-04-02T14:32:07.112Z,99144.81
2023-04-02T14:34:44.545Z,99141.44
2023-04-02T14:37:22.679Z,99153.69
2023-04-02T14:40:01.318Z,99154.91
2023-04-02T14:42:37.363Z,99148.94
2023-04-02T14:45:11.922Z,99152.75
2023-04-02T14:47:46.828Z,99148.34
2023-04-02T14:50:21.317Z,99142.59
2023-04-02T14:52:56.722Z,99149.41
2023-04-02T14:55:32.959Z,99146.19
2023-04-02T14:58:07.026Z,99146.44
2023-04-02T15:00:43.059Z,99149.41
2023-04-02T15:03:19.435Z,99143.84
2023-04-02T15:05:51.522Z,99144.63
2023-04-02T15:08:24.396Z,99150.75
2023-04-02T15:11:04.232Z,99150.44
2023-04-02T15:13:40.063Z,99147.81
2023-04-02T15:16:14.900Z,99147.81
2023-04-02T15:18:47.166Z,99152.59
2023-04-02T15:21:49.771Z,99150.97
2023-04-02T15:24:31.499Z,99155.06
2023-04-02T15:27:23.916Z,99156.00
2023-04-02T15:30:02.601Z,99155.28
2023-04-02T15:32:39.030Z,99151.88
2023-04-02T15:35:21.251Z,99156.31
2023-04-02T15:38:01.469Z,99155.84
2023-04-02T15:40:44.774Z,99157.41
2023-04-02T15:43:21.028Z,99161.72
2023-04-02T15:46:07.518Z,99164.88
2023-04-02T15:49:01.531Z,99164.78
2023-04-02T15:51:43.121Z,99170.41
2023-04-02T15:54:26.034Z,99166.19
2023-04-02T15:57:08.691Z,99167.38
2023-04-02T16:00:16.196Z,99171.03
2023-04-02T16:03:18.571Z,99175.16
2023-04-02T16:06:01.904Z,99178.63
2023-04-02T16:08:45.446Z,99177.72
2023-04-02T16:11:16.287Z,99177.25
2023-04-02T16:13:47.219Z,99178.31
2023-04-02T16:16:21.286Z,99175.31
2023-04-02T16:19:00.906Z,99174.38
2023-04-02T16:21:33.531Z,99182.31
2023-04-02T16:24:02.993Z,99178.81
2023-04-02T16:26:45.353Z,99184.91
2023-04-02T16:29:28.250Z,99191.69
2023-04-02T16:32:05.492Z,99188.53
2023-04-02T16:34:48.693Z,99198.38
2023-04-02T16:37:27.830Z,99200.22
2023-04-02T16:40:08.392Z,99201.00
2023-04-02T16:42:47.997Z,99204.03
2023-04-02T16:45:30.166Z,99209.00
2023-04-02T16:48:15.670Z,99204.22
2023-04-02T16:50:56.231Z,99214.72
2023-04-02T16:53:35.787Z,99224.00
2023-04-02T16:56:21.703Z,99217.22
2023-04-02T16:59:02.351Z,99209.81
2023-04-02T17:01:43.206Z,99212.88
2023-04-02T17:04:35.969Z,99220.41
2023-04-02T17:07:14.022Z,99212.34
2023-04-02T17:09:50.546Z,99220.16
2023-04-02T17:12:23.352Z,99222.03
2023-04-02T17:14:55.549Z,99214.09
2023-04-02T17:17:58.025Z,99219.94
2023-04-02T17:20:46.139Z,99223.31
2023-04-02T17:23:18.421Z,99224.56
2023-04-02T17:25:52.211Z,99220.97
2023-04-02T17:28:26.428Z,99221.84
2023-04-02T17:31:00.449Z,99228.47
2023-04-02T17:33:29.805Z,99225.50
2023-04-02T17:36:22.585Z,99229.78
2023-04-02T17:39:04.187Z,99228.22
2023-04-02T17:41:39.756Z,99226.63
2023-04-02T17:44:51.077Z,99229.66
2023-04-02T17:47:25.166Z,99238.66
2023-04-02T17:50:17.467Z,99235.78
2023-04-02T17:52:56.709Z,99235.16
2023-04-02T17:55:41.318Z,99237.88
2023-04-02T17:58:27.929Z,99234.78
2023-04-02T18:01:10.182Z,99234.03
2023-04-02T18:03:58.929Z,99235.03
2023-04-02T18:06:38.221Z,99243.38
2023-04-02T18:09:28.072Z,99243.88
2023-04-02T18:12:09.610Z,99238.13
2023-04-02T18:15:00.973Z,99245.69
2023-04-02T18:17:41.403Z,99250.38
2023-04-02T18:20:23.682Z,99244.41
2023-04-02T18:23:03.646Z,99248.22
2023-04-02T18:25:56.228Z,99245.81
2023-04-02T18:29:08.378Z,99246.47
2023-04-02T18:32:04.834Z,99252.09
2023-04-02T18:34:52.107Z,99250.97
2023-04-02T18:37:29.600Z,99249.16
2023-04-02T18:40:12.957Z,99257.75
2023-04-02T18:42:59.171Z,99252.94
2023-04-02T18:45:41.397Z,99256.31
2023-04-02T18:48:27.112Z,99254.38
2023-04-02T18:50:58.315Z,99253.94
2023-04-02T18:53:30.542Z,99254.56
2023-04-02T18:56:05.546Z,99254.56
2023-04-02T18:58:44.349Z,99248.09
2023-04-02T19:01:38.774Z,99254.56
2023-04-02T19:04:11.449Z,99253.25
2023-04-02T19:06:45.502Z,99255.38
2023-04-02T19:09:18.261Z,99260.06
2023-04-02T19:11:48.094Z,99267.09
2023-04-02T19:14:20.477Z,99265.16
2023-04-02T19:17:04.818Z,99267.63
2023-04-02T19:19:41.526Z,99272.84
2023-04-02T19:22:18.207Z,99264.53
2023-04-02T19:25:05.212Z,99266.88
2023-04-02T19:27:44.064Z,99265.56
2023-04-02T19:30:39.403Z,99266.88
2023-04-02T19:33:23.633Z,99279.22
2023-04-02T19:35:57.496Z,99264.53
2023-04-02T19:38:47.033Z,99263.63
2023-04-02T19:41:26.756Z,99261.91
2023-04-02T19:43:57.089Z,99264.50
2023-04-02T19:46:27.775Z,99264.91
2023-04-02T19:49:04.704Z,99267.38
2023-04-02T19:51:34.968Z,99270.47
2023-04-02T19:54:04.356Z,99268.66
2023-04-02T19:56:34.253Z,99267.88
2023-04-02T19:59:17.061Z,99275.94
2023-04-02T20:01:48.380Z,99271.25
2023-04-02T20:04:19.794Z,99276.19
2023-04-02T20:06:49.346Z,99276.69
2023-04-02T20:09:18.667Z,99269.44
2023-04-02T20:11:49.285Z,99279.81
2023-04-02T20:14:18.831Z,99271.75
2023-04-02T20:16:49.258Z,99275.53
2023-04-02T20:19:20.932Z,99279.53
2023-04-02T20:21:50.997Z,99283.72
2023-04-02T20:24:22.896Z,99273.97
2023-04-02T20:26:55.424Z,99291.09
2023-04-02T20:29:27.937Z,99283.97
2023-04-02T20:31:57.820Z,99284.06
2023-04-02T20:34:28.635Z,99295.88
2023-04-02T20:36:58.667Z,99283.41
2023-04-02T20:39:28.964Z,99288.59
2023-04-02T20:42:02.791Z,99289.38
2023-04-02T20:44:32.067Z,99281.84
2023-04-02T20:47:02.095Z,99289.09
2023-04-02T20:49:32.603Z,99283.66
2023-04-02T20:52:01.927Z,99282.75
2023-04-02T20:54:31.177Z,99273.78
2023-04-02T20:57:06.512Z,99277.16
2023-04-02T20:59:35.778Z,99270.63
2023-04-02T21:02:04.731Z,99264.13
2023-04-02T21:04:35.133Z,99277.09
2023-04-02T21:07:04.239Z,99279.44
2023-04-02T21:09:33.294Z,99273.19
2023-04-02T21:12:02.364Z,99275.66
2023-04-02T21:14:35.848Z,99274.63
2023-04-02T21:17:06.122Z,99275.53
2023-04-02T21:19:36.798Z,99282.53
2023-04-02T21:22:05.831Z,99283.31
2023-04-02T21:24:34.976Z,99283.56
2023-04-02T21:27:03.945Z,99281.22
2023-04-02T21:29:33.068Z,99281.75
2023-04-02T21:32:08.260Z,99284.22
2023-04-02T21:34:44.719Z,99284.84
2023-04-02T21:37:13.618Z,99286.41
2023-04-02T21:39:42.735Z,99293.13
2023-04-02T21:42:13.486Z,99293.34
2023-04-02T21:44:42.455Z,99298.13
2023-04-02T21:47:11.468Z,99296.31
2023-04-02T21:49:40.615Z,99291.25
2023-04-02T21:52:11.983Z,99289.84
2023-04-02T21:54:40.937Z,99294.91
2023-04-02T21:57:09.997Z,99295.41
2023-04-02T21:59:38.969Z,99299.75
2023-04-02T22:02:08.087Z,99297.88
2023-04-02T22:04:37.130Z,99297.97
2023-04-02T22:07:06.111Z,99306.31
2023-04-02T22:09:36.921Z,99297.97
2023-04-02T22:12:08.150Z,99298.91
2023-04-02T22:14:37.160Z,99304.00
2023-04-02T22:17:06.345Z,99299.69
2023-04-02T22:19:35.880Z,99306.25
2023-04-02T22:22:04.970Z,99304.38
2023-04-02T22:24:34.114Z,99311.72
2023-04-02T22:27:04.764Z,99301.47
2023-04-02T22:29:33.831Z,99305.31
2023-04-02T22:32:02.906Z,99303.28
2023-04-02T22:34:32.062Z,99303.84
2023-04-02T22:37:01.321Z,99301.66
2023-04-02T22:39:30.429Z,99302.06
2023-04-02T22:41:59.350Z,99303.13
2023-04-02T22:44:29.675Z,99297.44
2023-04-02T22:46:58.767Z,99292.25
2023-04-02T22:49:27.830Z,99289.53
2023-04-02T22:51:56.771Z,99293.78
2023-04-02T22:54:25.803Z,99291.19
2023-04-02T22:56:54.627Z,99298.84
2023-04-02T22:59:23.635Z,99300.31
2023-04-02T23:01:54.002Z,99302.91
2023-04-02T23:04:22.976Z,99296.66
2023-04-02T23:06:52.005Z,99295.63
2023-04-02T23:09:21.568Z,99293.03
2023-04-02T23:11:50.611Z,99299.25
2023-04-02T23:14:19.742Z,99305.22
2023-04-02T23:16:48.656Z,99310.28
2023-04-02T23:19:18.939Z,99300.25
2023-04-02T23:21:47.923Z,99300.75
2023-04-02T23:24:17.275Z,99301.66
2023-04-02T23:26:46.348Z,99300.75
2023-04-02T23:29:15.750Z,99304.41
2023-04-02T23:31:44.728Z,99303.47
2023-04-02T23:34:13.791Z,99308.41
2023-04-02T23:36:44.122Z,99309.31
2023-04-02T23:39:14.753Z,99305.94
2023-04-02T23:41:44.256Z,99302.56
2023-04-02T23:44:13.420Z,99303.63
2023-04-02T23:46:42.500Z,99298.16
2023-04-02T23:49:12.995Z,99302.56
2023-04-02T23:51:43.417Z,99306.22
2023-04-02T23:54:13.896Z,99303.75
2023-04-02T23:56:43.301Z,99303.63
2023-04-02T23:59:12.299Z,99300.13
